↑ Zurück zu Flugplatz Hof-Plauen

Seite drucken

Wetter Infos

Wetter-Informationen für den Flugplatz Hof inklusive METAR / TAF FCWX Ilu Windsack

Die wichtigsten und aktuellen Wetterdaten für den Flugplatz Hof-Plauen sowie für die Umgebung haben wir hier zusammengestellt.

Natürlich sind auch die Flugwettermeldungen direkt für Hof aber auch frei wählbar abrufbar.

Abruf von Luftsportberichten* HIER >

( *=Externer Link DWD)


[one_half]

Wetterdaten-Links

Niederschlagsradarwww.wetter.info)

Satellitenbild Zentraleuropa/Deutschland NOAADWD)

Satellitenbild Zentraleuropa (IR farbig)DWD)

Satellitenbild Europa (IR) (© DWD)

Satellitenbild Europa (IR farbig) DWD)

Satellitenbilder Quelle: © Deutscher Wetterdienst

(Bilder öffnen in neuem Lightbox-Layer)

[/one_half]

[one_half_last]

Aktueller METAR / TAF – EDQM

METAR: EDQM 161750Z 20008KT 160V230 4200 -SN OVC006 M03/M04 Q1012

TAF: METAR EDQM 221420Z 20013KT 9999 OVC007 03/01 Q0994

Quelle: Aviation Digital Data Service (ADDS) 

[/one_half_last]


Aktuelles Niederschlagsradar (Quelle: Deutscher Wetterdienst)

Quelle: Deutscher Wetterdienst


 

Permanentlink zu diesem Beitrag: https://aeroclub-hof.de/achpwp/flugplatz-hof-plauen/wetter-infos/